Capao Bonito, Brazil
Current Conditions -  °F | °C
As of 3:20 PM on Sunday 21 Dec 2014 (Local Time) from SBKP Reporting Station
Rain Showers Rain Showers  
Wind Chill: 79°   Ceiling: Unl
Heat Index: 81°   Visibility: 6mi
Dew Point: 68°   Wind: 20mph
Humidity: 69%   Direction: 30°NNE
Pressure: 29.88"   Gusts: 32mph
Location:  24.03°S, 48.35°W
Report Text: SBKP 211720Z 03017G28KT 9999 VCSH SCT040 FEW045TCU 26/20 Q1012
Loading
Personal Weather Stations






























Interactive Weather Map New forecast layout! Learn more

10-Day Weather Forecast

Advertisements
Track Severe Weather on mobile